sensor_id;sensor_type;location;lat;lon;timestamp;P1;P2;P0
28026;PMS5003;15344;52.342;-1.290;2023-06-10T00:00:04;21;17;
28026;PMS5003;15344;52.342;-1.290;2023-06-10T00:02:29;22;18;
28026;PMS5003;15344;52.342;-1.290;2023-06-10T00:04:54;23;21;
28026;PMS5003;15344;52.342;-1.290;2023-06-10T00:07:20;30;23;
28026;PMS5003;15344;52.342;-1.290;2023-06-10T00:09:46;20;14;
28026;PMS5003;15344;52.342;-1.290;2023-06-10T00:12:12;20;18;
28026;PMS5003;15344;52.342;-1.290;2023-06-10T00:14:38;23;17;
28026;PMS5003;15344;52.342;-1.290;2023-06-10T00:17:03;18;17;
28026;PMS5003;15344;52.342;-1.290;2023-06-10T00:19:28;24;19;
28026;PMS5003;15344;52.342;-1.290;2023-06-10T00:21:54;22;15;
28026;PMS5003;15344;52.342;-1.290;2023-06-10T00:24:19;21;17;
28026;PMS5003;15344;52.342;-1.290;2023-06-10T00:26:45;18;18;
28026;PMS5003;15344;52.342;-1.290;2023-06-10T00:29:10;21;17;
28026;PMS5003;15344;52.342;-1.290;2023-06-10T00:31:36;20;14;
28026;PMS5003;15344;52.342;-1.290;2023-06-10T00:34:01;16;14;
28026;PMS5003;15344;52.342;-1.290;2023-06-10T00:36:26;17;16;
28026;PMS5003;15344;52.342;-1.290;2023-06-10T00:38:52;31;22;
28026;PMS5003;15344;52.342;-1.290;2023-06-10T00:41:18;26;21;
28026;PMS5003;15344;52.342;-1.290;2023-06-10T00:43:43;20;15;
28026;PMS5003;15344;52.342;-1.290;2023-06-10T00:46:08;19;18;
28026;PMS5003;15344;52.342;-1.290;2023-06-10T00:48:34;23;17;
28026;PMS5003;15344;52.342;-1.290;2023-06-10T00:50:59;24;21;
28026;PMS5003;15344;52.342;-1.290;2023-06-10T00:53:25;17;15;
28026;PMS5003;15344;52.342;-1.290;2023-06-10T00:55:50;23;22;
28026;PMS5003;15344;52.342;-1.290;2023-06-10T00:58:15;17;15;
28026;PMS5003;15344;52.342;-1.290;2023-06-10T01:00:40;20;17;
28026;PMS5003;15344;52.342;-1.290;2023-06-10T01:03:06;24;21;
28026;PMS5003;15344;52.342;-1.290;2023-06-10T01:05:32;18;14;
28026;PMS5003;15344;52.342;-1.290;2023-06-10T01:08:00;20;19;
28026;PMS5003;15344;52.342;-1.290;2023-06-10T01:10:24;20;20;
28026;PMS5003;15344;52.342;-1.290;2023-06-10T01:12:51;19;19;
28026;PMS5003;15344;52.342;-1.290;2023-06-10T01:15:14;23;18;
28026;PMS5003;15344;52.342;-1.290;2023-06-10T01:20:05;17;13;
28026;PMS5003;15344;52.342;-1.290;2023-06-10T01:22:30;24;18;
28026;PMS5003;15344;52.342;-1.290;2023-06-10T01:24:56;20;18;
28026;PMS5003;15344;52.342;-1.290;2023-06-10T01:27:21;19;16;
28026;PMS5003;15344;52.342;-1.290;2023-06-10T01:29:49;17;15;
28026;PMS5003;15344;52.342;-1.290;2023-06-10T01:32:15;20;17;
28026;PMS5003;15344;52.342;-1.290;2023-06-10T01:34:38;25;18;
28026;PMS5003;15344;52.342;-1.290;2023-06-10T01:37:04;24;19;
28026;PMS5003;15344;52.342;-1.290;2023-06-10T01:39:29;18;15;
28026;PMS5003;15344;52.342;-1.290;2023-06-10T01:41:55;26;22;
28026;PMS5003;15344;52.342;-1.290;2023-06-10T01:44:20;21;20;
28026;PMS5003;15344;52.342;-1.290;2023-06-10T01:46:46;21;16;
28026;PMS5003;15344;52.342;-1.290;2023-06-10T01:49:12;20;18;
28026;PMS5003;15344;52.342;-1.290;2023-06-10T01:51:37;22;17;
28026;PMS5003;15344;52.342;-1.290;2023-06-10T01:54:03;20;17;
28026;PMS5003;15344;52.342;-1.290;2023-06-10T01:56:28;18;16;
28026;PMS5003;15344;52.342;-1.290;2023-06-10T01:58:54;19;17;
28026;PMS5003;15344;52.342;-1.290;2023-06-10T02:01:20;25;16;
28026;PMS5003;15344;52.342;-1.290;2023-06-10T02:03:45;21;19;
28026;PMS5003;15344;52.342;-1.290;2023-06-10T02:06:11;28;21;
28026;PMS5003;15344;52.342;-1.290;2023-06-10T02:08:36;22;19;
28026;PMS5003;15344;52.342;-1.290;2023-06-10T02:11:02;20;17;
28026;PMS5003;15344;52.342;-1.290;2023-06-10T02:13:27;25;18;
28026;PMS5003;15344;52.342;-1.290;2023-06-10T02:15:52;24;21;
28026;PMS5003;15344;52.342;-1.290;2023-06-10T02:18:18;32;21;
28026;PMS5003;15344;52.342;-1.290;2023-06-10T02:20:44;27;23;
28026;PMS5003;15344;52.342;-1.290;2023-06-10T02:23:09;24;20;
28026;PMS5003;15344;52.342;-1.290;2023-06-10T02:25:34;23;17;
28026;PMS5003;15344;52.342;-1.290;2023-06-10T02:27:59;19;17;
28026;PMS5003;15344;52.342;-1.290;2023-06-10T02:30:25;22;20;
28026;PMS5003;15344;52.342;-1.290;2023-06-10T02:32:50;20;19;
28026;PMS5003;15344;52.342;-1.290;2023-06-10T02:35:17;23;17;
28026;PMS5003;15344;52.342;-1.290;2023-06-10T02:37:42;20;14;
28026;PMS5003;15344;52.342;-1.290;2023-06-10T02:40:08;23;18;
28026;PMS5003;15344;52.342;-1.290;2023-06-10T02:42:33;29;21;
28026;PMS5003;15344;52.342;-1.290;2023-06-10T02:44:58;21;16;
28026;PMS5003;15344;52.342;-1.290;2023-06-10T02:47:24;20;16;
28026;PMS5003;15344;52.342;-1.290;2023-06-10T02:49:50;21;21;
28026;PMS5003;15344;52.342;-1.290;2023-06-10T02:52:16;25;23;
28026;PMS5003;15344;52.342;-1.290;2023-06-10T02:54:41;16;16;
28026;PMS5003;15344;52.342;-1.290;2023-06-10T02:57:07;21;19;
28026;PMS5003;15344;52.342;-1.290;2023-06-10T02:59:32;25;19;
28026;PMS5003;15344;52.342;-1.290;2023-06-10T03:01:57;20;20;
28026;PMS5003;15344;52.342;-1.290;2023-06-10T03:04:23;28;21;
28026;PMS5003;15344;52.342;-1.290;2023-06-10T03:06:48;20;16;
28026;PMS5003;15344;52.342;-1.290;2023-06-10T03:09:14;26;24;
28026;PMS5003;15344;52.342;-1.290;2023-06-10T03:11:40;23;20;
28026;PMS5003;15344;52.342;-1.290;2023-06-10T03:14:05;17;16;
28026;PMS5003;15344;52.342;-1.290;2023-06-10T03:16:31;18;16;
28026;PMS5003;15344;52.342;-1.290;2023-06-10T03:18:56;24;20;
28026;PMS5003;15344;52.342;-1.290;2023-06-10T03:21:21;16;14;
28026;PMS5003;15344;52.342;-1.290;2023-06-10T03:23:47;18;15;
28026;PMS5003;15344;52.342;-1.290;2023-06-10T03:26:12;19;17;
28026;PMS5003;15344;52.342;-1.290;2023-06-10T03:28:38;25;19;
28026;PMS5003;15344;52.342;-1.290;2023-06-10T03:31:03;22;17;
28026;PMS5003;15344;52.342;-1.290;2023-06-10T03:33:29;28;23;
28026;PMS5003;15344;52.342;-1.290;2023-06-10T03:35:54;23;21;
28026;PMS5003;15344;52.342;-1.290;2023-06-10T03:38:20;24;22;
28026;PMS5003;15344;52.342;-1.290;2023-06-10T03:40:45;17;15;
28026;PMS5003;15344;52.342;-1.290;2023-06-10T03:43:10;32;23;
28026;PMS5003;15344;52.342;-1.290;2023-06-10T03:45:36;22;18;
28026;PMS5003;15344;52.342;-1.290;2023-06-10T03:48:01;21;20;
28026;PMS5003;15344;52.342;-1.290;2023-06-10T03:50:27;22;22;
28026;PMS5003;15344;52.342;-1.290;2023-06-10T03:52:52;22;18;
28026;PMS5003;15344;52.342;-1.290;2023-06-10T03:55:18;27;20;
28026;PMS5003;15344;52.342;-1.290;2023-06-10T03:57:44;22;19;
28026;PMS5003;15344;52.342;-1.290;2023-06-10T04:00:09;23;23;
28026;PMS5003;15344;52.342;-1.290;2023-06-10T04:02:35;21;17;
28026;PMS5003;15344;52.342;-1.290;2023-06-10T04:05:00;26;20;
28026;PMS5003;15344;52.342;-1.290;2023-06-10T04:07:25;23;22;
28026;PMS5003;15344;52.342;-1.290;2023-06-10T04:09:51;21;19;
28026;PMS5003;15344;52.342;-1.290;2023-06-10T04:12:16;24;21;
28026;PMS5003;15344;52.342;-1.290;2023-06-10T04:14:42;26;19;
28026;PMS5003;15344;52.342;-1.290;2023-06-10T04:17:08;31;24;
28026;PMS5003;15344;52.342;-1.290;2023-06-10T04:19:33;25;22;
28026;PMS5003;15344;52.342;-1.290;2023-06-10T04:22:00;22;18;
28026;PMS5003;15344;52.342;-1.290;2023-06-10T04:24:24;21;17;
28026;PMS5003;15344;52.342;-1.290;2023-06-10T04:26:49;26;21;
28026;PMS5003;15344;52.342;-1.290;2023-06-10T04:29:14;20;18;
28026;PMS5003;15344;52.342;-1.290;2023-06-10T04:31:39;24;21;
28026;PMS5003;15344;52.342;-1.290;2023-06-10T04:34:04;24;20;
28026;PMS5003;15344;52.342;-1.290;2023-06-10T04:36:29;28;23;
28026;PMS5003;15344;52.342;-1.290;2023-06-10T04:38:55;26;21;
28026;PMS5003;15344;52.342;-1.290;2023-06-10T04:41:21;30;23;
28026;PMS5003;15344;52.342;-1.290;2023-06-10T04:43:46;23;21;
28026;PMS5003;15344;52.342;-1.290;2023-06-10T04:46:12;26;23;
28026;PMS5003;15344;52.342;-1.290;2023-06-10T04:48:37;24;21;
28026;PMS5003;15344;52.342;-1.290;2023-06-10T04:51:03;30;24;
28026;PMS5003;15344;52.342;-1.290;2023-06-10T04:53:28;23;22;
28026;PMS5003;15344;52.342;-1.290;2023-06-10T04:55:54;29;19;
28026;PMS5003;15344;52.342;-1.290;2023-06-10T04:58:19;32;23;
28026;PMS5003;15344;52.342;-1.290;2023-06-10T05:00:45;28;24;
28026;PMS5003;15344;52.342;-1.290;2023-06-10T05:03:10;31;26;
28026;PMS5003;15344;52.342;-1.290;2023-06-10T05:05:36;34;30;
28026;PMS5003;15344;52.342;-1.290;2023-06-10T05:08:01;25;22;
28026;PMS5003;15344;52.342;-1.290;2023-06-10T05:10:27;25;24;
28026;PMS5003;15344;52.342;-1.290;2023-06-10T05:12:52;30;27;
28026;PMS5003;15344;52.342;-1.290;2023-06-10T05:15:18;31;23;
28026;PMS5003;15344;52.342;-1.290;2023-06-10T05:17:43;27;23;
28026;PMS5003;15344;52.342;-1.290;2023-06-10T05:20:09;32;25;
28026;PMS5003;15344;52.342;-1.290;2023-06-10T05:22:33;28;24;
28026;PMS5003;15344;52.342;-1.290;2023-06-10T05:24:59;27;26;
28026;PMS5003;15344;52.342;-1.290;2023-06-10T05:27:24;31;28;
28026;PMS5003;15344;52.342;-1.290;2023-06-10T05:29:49;35;26;
28026;PMS5003;15344;52.342;-1.290;2023-06-10T05:32:14;27;26;
28026;PMS5003;15344;52.342;-1.290;2023-06-10T05:34:40;37;27;
28026;PMS5003;15344;52.342;-1.290;2023-06-10T05:37:06;27;24;
28026;PMS5003;15344;52.342;-1.290;2023-06-10T05:39:31;29;24;
28026;PMS5003;15344;52.342;-1.290;2023-06-10T05:41:56;33;28;
28026;PMS5003;15344;52.342;-1.290;2023-06-10T05:44:22;41;31;
28026;PMS5003;15344;52.342;-1.290;2023-06-10T05:46:48;30;29;
28026;PMS5003;15344;52.342;-1.290;2023-06-10T05:49:13;26;24;
28026;PMS5003;15344;52.342;-1.290;2023-06-10T05:51:39;32;27;
28026;PMS5003;15344;52.342;-1.290;2023-06-10T05:54:04;31;27;
28026;PMS5003;15344;52.342;-1.290;2023-06-10T05:56:29;30;26;
28026;PMS5003;15344;52.342;-1.290;2023-06-10T05:58:55;25;21;
28026;PMS5003;15344;52.342;-1.290;2023-06-10T06:01:21;31;26;
28026;PMS5003;15344;52.342;-1.290;2023-06-10T06:03:46;28;26;
28026;PMS5003;15344;52.342;-1.290;2023-06-10T06:06:12;27;26;
28026;PMS5003;15344;52.342;-1.290;2023-06-10T06:08:37;26;22;
28026;PMS5003;15344;52.342;-1.290;2023-06-10T06:11:03;27;22;
28026;PMS5003;15344;52.342;-1.290;2023-06-10T06:13:29;33;25;
28026;PMS5003;15344;52.342;-1.290;2023-06-10T06:15:54;28;24;
28026;PMS5003;15344;52.342;-1.290;2023-06-10T06:18:19;25;21;
28026;PMS5003;15344;52.342;-1.290;2023-06-10T06:20:45;37;25;
28026;PMS5003;15344;52.342;-1.290;2023-06-10T06:23:10;29;23;
28026;PMS5003;15344;52.342;-1.290;2023-06-10T06:25:35;31;24;
28026;PMS5003;15344;52.342;-1.290;2023-06-10T06:28:01;24;22;
28026;PMS5003;15344;52.342;-1.290;2023-06-10T06:30:26;31;24;
28026;PMS5003;15344;52.342;-1.290;2023-06-10T06:32:51;31;26;
28026;PMS5003;15344;52.342;-1.290;2023-06-10T06:35:16;26;25;
28026;PMS5003;15344;52.342;-1.290;2023-06-10T06:37:41;24;22;
28026;PMS5003;15344;52.342;-1.290;2023-06-10T06:40:07;27;23;
28026;PMS5003;15344;52.342;-1.290;2023-06-10T06:42:32;31;22;
28026;PMS5003;15344;52.342;-1.290;2023-06-10T06:44:57;24;20;
28026;PMS5003;15344;52.342;-1.290;2023-06-10T06:47:23;19;16;
28026;PMS5003;15344;52.342;-1.290;2023-06-10T06:49:49;26;21;
28026;PMS5003;15344;52.342;-1.290;2023-06-10T06:52:14;29;26;
28026;PMS5003;15344;52.342;-1.290;2023-06-10T06:54:39;39;36;
28026;PMS5003;15344;52.342;-1.290;2023-06-10T06:57:05;28;21;
28026;PMS5003;15344;52.342;-1.290;2023-06-10T06:59:31;20;18;
28026;PMS5003;15344;52.342;-1.290;2023-06-10T07:01:56;26;24;
28026;PMS5003;15344;52.342;-1.290;2023-06-10T07:04:21;21;20;
28026;PMS5003;15344;52.342;-1.290;2023-06-10T07:06:47;19;15;
28026;PMS5003;15344;52.342;-1.290;2023-06-10T07:09:12;34;23;
28026;PMS5003;15344;52.342;-1.290;2023-06-10T07:11:38;29;24;
28026;PMS5003;15344;52.342;-1.290;2023-06-10T07:14:04;18;16;
28026;PMS5003;15344;52.342;-1.290;2023-06-10T07:16:29;13;13;
28026;PMS5003;15344;52.342;-1.290;2023-06-10T07:18:55;23;17;
28026;PMS5003;15344;52.342;-1.290;2023-06-10T07:21:20;16;13;
28026;PMS5003;15344;52.342;-1.290;2023-06-10T07:23:46;18;15;
28026;PMS5003;15344;52.342;-1.290;2023-06-10T07:26:12;13;13;
28026;PMS5003;15344;52.342;-1.290;2023-06-10T07:28:37;21;16;
28026;PMS5003;15344;52.342;-1.290;2023-06-10T07:31:02;20;13;
28026;PMS5003;15344;52.342;-1.290;2023-06-10T07:33:28;12;12;
28026;PMS5003;15344;52.342;-1.290;2023-06-10T07:35:53;17;14;
28026;PMS5003;15344;52.342;-1.290;2023-06-10T07:38:19;16;13;
28026;PMS5003;15344;52.342;-1.290;2023-06-10T07:40:45;18;16;
28026;PMS5003;15344;52.342;-1.290;2023-06-10T07:43:10;21;18;
28026;PMS5003;15344;52.342;-1.290;2023-06-10T07:45:35;19;15;
28026;PMS5003;15344;52.342;-1.290;2023-06-10T07:48:00;16;14;
28026;PMS5003;15344;52.342;-1.290;2023-06-10T07:50:25;16;14;
28026;PMS5003;15344;52.342;-1.290;2023-06-10T07:52:51;15;15;
28026;PMS5003;15344;52.342;-1.290;2023-06-10T07:55:16;18;12;
28026;PMS5003;15344;52.342;-1.290;2023-06-10T07:57:42;15;15;
28026;PMS5003;15344;52.342;-1.290;2023-06-10T08:00:08;18;14;
28026;PMS5003;15344;52.342;-1.290;2023-06-10T08:02:33;20;13;
28026;PMS5003;15344;52.342;-1.290;2023-06-10T08:04:59;18;15;
28026;PMS5003;15344;52.342;-1.290;2023-06-10T08:07:24;19;15;
28026;PMS5003;15344;52.342;-1.290;2023-06-10T08:09:50;14;12;
28026;PMS5003;15344;52.342;-1.290;2023-06-10T08:12:15;19;13;
28026;PMS5003;15344;52.342;-1.290;2023-06-10T08:14:40;14;13;
28026;PMS5003;15344;52.342;-1.290;2023-06-10T08:17:06;22;16;
28026;PMS5003;15344;52.342;-1.290;2023-06-10T08:19:31;17;14;
28026;PMS5003;15344;52.342;-1.290;2023-06-10T08:21:56;13;12;
28026;PMS5003;15344;52.342;-1.290;2023-06-10T08:24:22;15;11;
28026;PMS5003;15344;52.342;-1.290;2023-06-10T08:26:47;11;9;
28026;PMS5003;15344;52.342;-1.290;2023-06-10T08:29:13;19;13;
28026;PMS5003;15344;52.342;-1.290;2023-06-10T08:31:37;20;18;
28026;PMS5003;15344;52.342;-1.290;2023-06-10T08:34:02;14;13;
28026;PMS5003;15344;52.342;-1.290;2023-06-10T08:36:28;15;13;
28026;PMS5003;15344;52.342;-1.290;2023-06-10T08:38:54;19;13;
28026;PMS5003;15344;52.342;-1.290;2023-06-10T08:41:19;14;12;
28026;PMS5003;15344;52.342;-1.290;2023-06-10T08:43:45;17;15;
28026;PMS5003;15344;52.342;-1.290;2023-06-10T08:46:10;18;14;
28026;PMS5003;15344;52.342;-1.290;2023-06-10T08:48:35;20;17;
28026;PMS5003;15344;52.342;-1.290;2023-06-10T08:51:01;20;17;
28026;PMS5003;15344;52.342;-1.290;2023-06-10T08:53:26;13;11;
28026;PMS5003;15344;52.342;-1.290;2023-06-10T08:55:51;14;13;
28026;PMS5003;15344;52.342;-1.290;2023-06-10T08:58:16;13;9;
28026;PMS5003;15344;52.342;-1.290;2023-06-10T09:00:42;12;11;
28026;PMS5003;15344;52.342;-1.290;2023-06-10T09:03:07;18;16;
28026;PMS5003;15344;52.342;-1.290;2023-06-10T09:05:33;13;13;
28026;PMS5003;15344;52.342;-1.290;2023-06-10T09:07:58;17;11;
28026;PMS5003;15344;52.342;-1.290;2023-06-10T09:10:23;11;10;
28026;PMS5003;15344;52.342;-1.290;2023-06-10T09:12:49;18;13;
28026;PMS5003;15344;52.342;-1.290;2023-06-10T09:15:15;14;13;
28026;PMS5003;15344;52.342;-1.290;2023-06-10T09:17:40;12;12;
28026;PMS5003;15344;52.342;-1.290;2023-06-10T09:20:06;16;14;
28026;PMS5003;15344;52.342;-1.290;2023-06-10T09:22:31;16;12;
28026;PMS5003;15344;52.342;-1.290;2023-06-10T09:27:22;16;14;
28026;PMS5003;15344;52.342;-1.290;2023-06-10T09:29:51;12;10;
28026;PMS5003;15344;52.342;-1.290;2023-06-10T09:32:13;18;15;
28026;PMS5003;15344;52.342;-1.290;2023-06-10T09:34:38;18;14;
28026;PMS5003;15344;52.342;-1.290;2023-06-10T09:37:04;18;15;
28026;PMS5003;15344;52.342;-1.290;2023-06-10T09:39:29;19;14;
28026;PMS5003;15344;52.342;-1.290;2023-06-10T09:41:55;13;11;
28026;PMS5003;15344;52.342;-1.290;2023-06-10T09:44:21;12;12;
28026;PMS5003;15344;52.342;-1.290;2023-06-10T09:46:46;15;15;
28026;PMS5003;15344;52.342;-1.290;2023-06-10T09:49:12;12;11;
28026;PMS5003;15344;52.342;-1.290;2023-06-10T09:51:37;19;13;
28026;PMS5003;15344;52.342;-1.290;2023-06-10T09:54:03;12;12;
28026;PMS5003;15344;52.342;-1.290;2023-06-10T09:56:32;15;14;
28026;PMS5003;15344;52.342;-1.290;2023-06-10T09:58:54;15;15;
28026;PMS5003;15344;52.342;-1.290;2023-06-10T10:01:20;17;12;
28026;PMS5003;15344;52.342;-1.290;2023-06-10T10:03:45;15;15;
28026;PMS5003;15344;52.342;-1.290;2023-06-10T10:06:11;15;15;
28026;PMS5003;15344;52.342;-1.290;2023-06-10T10:08:36;14;14;
28026;PMS5003;15344;52.342;-1.290;2023-06-10T10:11:01;17;15;
28026;PMS5003;15344;52.342;-1.290;2023-06-10T10:13:27;17;13;
28026;PMS5003;15344;52.342;-1.290;2023-06-10T10:15:52;12;12;
28026;PMS5003;15344;52.342;-1.290;2023-06-10T10:18:18;15;15;
28026;PMS5003;15344;52.342;-1.290;2023-06-10T10:20:45;17;15;
28026;PMS5003;15344;52.342;-1.290;2023-06-10T10:23:09;16;11;
28026;PMS5003;15344;52.342;-1.290;2023-06-10T10:25:37;26;21;
28026;PMS5003;15344;52.342;-1.290;2023-06-10T10:28:02;16;14;
28026;PMS5003;15344;52.342;-1.290;2023-06-10T10:30:25;19;13;
28026;PMS5003;15344;52.342;-1.290;2023-06-10T10:32:52;15;14;
28026;PMS5003;15344;52.342;-1.290;2023-06-10T10:35:16;18;15;
28026;PMS5003;15344;52.342;-1.290;2023-06-10T10:37:41;14;14;
28026;PMS5003;15344;52.342;-1.290;2023-06-10T10:40:07;18;16;
28026;PMS5003;15344;52.342;-1.290;2023-06-10T10:42:32;19;14;
28026;PMS5003;15344;52.342;-1.290;2023-06-10T10:44:58;14;13;
28026;PMS5003;15344;52.342;-1.290;2023-06-10T10:47:23;13;13;
28026;PMS5003;15344;52.342;-1.290;2023-06-10T10:49:49;20;16;
28026;PMS5003;15344;52.342;-1.290;2023-06-10T10:52:14;15;12;
28026;PMS5003;15344;52.342;-1.290;2023-06-10T10:54:43;19;15;
28026;PMS5003;15344;52.342;-1.290;2023-06-10T10:57:09;15;13;
28026;PMS5003;15344;52.342;-1.290;2023-06-10T11:01:55;18;17;
28026;PMS5003;15344;52.342;-1.290;2023-06-10T11:04:20;13;10;
28026;PMS5003;15344;52.342;-1.290;2023-06-10T11:11:37;16;16;
28026;PMS5003;15344;52.342;-1.290;2023-06-10T11:14:06;19;16;
28026;PMS5003;15344;52.342;-1.290;2023-06-10T11:16:28;17;15;
28026;PMS5003;15344;52.342;-1.290;2023-06-10T11:18:54;22;17;
28026;PMS5003;15344;52.342;-1.290;2023-06-10T11:21:19;17;16;
28026;PMS5003;15344;52.342;-1.290;2023-06-10T11:23:45;16;15;
28026;PMS5003;15344;52.342;-1.290;2023-06-10T11:26:11;18;16;
28026;PMS5003;15344;52.342;-1.290;2023-06-10T11:28:36;16;15;
28026;PMS5003;15344;52.342;-1.290;2023-06-10T11:31:02;22;16;
28026;PMS5003;15344;52.342;-1.290;2023-06-10T11:33:27;17;16;
28026;PMS5003;15344;52.342;-1.290;2023-06-10T11:35:52;15;14;
28026;PMS5003;15344;52.342;-1.290;2023-06-10T11:38:18;18;17;
28026;PMS5003;15344;52.342;-1.290;2023-06-10T11:40:46;18;15;
28026;PMS5003;15344;52.342;-1.290;2023-06-10T11:43:09;22;20;
28026;PMS5003;15344;52.342;-1.290;2023-06-10T11:45:34;23;17;
28026;PMS5003;15344;52.342;-1.290;2023-06-10T11:48:00;18;17;
28026;PMS5003;15344;52.342;-1.290;2023-06-10T11:50:29;20;19;
28026;PMS5003;15344;52.342;-1.290;2023-06-10T11:52:50;20;20;
28026;PMS5003;15344;52.342;-1.290;2023-06-10T11:55:16;19;16;
28026;PMS5003;15344;52.342;-1.290;2023-06-10T11:57:42;17;16;
28026;PMS5003;15344;52.342;-1.290;2023-06-10T12:00:07;16;16;
28026;PMS5003;15344;52.342;-1.290;2023-06-10T12:02:32;19;17;
28026;PMS5003;15344;52.342;-1.290;2023-06-10T12:07:24;23;21;
28026;PMS5003;15344;52.342;-1.290;2023-06-10T12:12:15;25;20;
28026;PMS5003;15344;52.342;-1.290;2023-06-10T12:17:05;27;18;
28026;PMS5003;15344;52.342;-1.290;2023-06-10T12:19:31;21;16;
28026;PMS5003;15344;52.342;-1.290;2023-06-10T12:21:56;22;16;
28026;PMS5003;15344;52.342;-1.290;2023-06-10T12:24:21;21;18;
28026;PMS5003;15344;52.342;-1.290;2023-06-10T12:26:47;18;16;
28026;PMS5003;15344;52.342;-1.290;2023-06-10T12:29:15;20;18;
28026;PMS5003;15344;52.342;-1.290;2023-06-10T12:34:07;21;20;
28026;PMS5003;15344;52.342;-1.290;2023-06-10T12:36:29;18;17;
28026;PMS5003;15344;52.342;-1.290;2023-06-10T12:41:20;25;22;
28026;PMS5003;15344;52.342;-1.290;2023-06-10T12:43:45;25;23;
28026;PMS5003;15344;52.342;-1.290;2023-06-10T12:46:10;23;18;
28026;PMS5003;15344;52.342;-1.290;2023-06-10T12:48:36;21;19;
28026;PMS5003;15344;52.342;-1.290;2023-06-10T12:51:01;27;22;
28026;PMS5003;15344;52.342;-1.290;2023-06-10T12:53:26;19;18;
28026;PMS5003;15344;52.342;-1.290;2023-06-10T12:55:52;19;19;
28026;PMS5003;15344;52.342;-1.290;2023-06-10T12:58:17;21;19;
28026;PMS5003;15344;52.342;-1.290;2023-06-10T13:00:42;20;20;
28026;PMS5003;15344;52.342;-1.290;2023-06-10T13:03:08;24;23;
28026;PMS5003;15344;52.342;-1.290;2023-06-10T13:05:33;25;22;
28026;PMS5003;15344;52.342;-1.290;2023-06-10T13:07:58;26;24;
28026;PMS5003;15344;52.342;-1.290;2023-06-10T13:10:24;26;25;
28026;PMS5003;15344;52.342;-1.290;2023-06-10T13:12:48;27;25;
28026;PMS5003;15344;52.342;-1.290;2023-06-10T13:15:14;28;26;
28026;PMS5003;15344;52.342;-1.290;2023-06-10T13:17:38;23;23;
28026;PMS5003;15344;52.342;-1.290;2023-06-10T13:20:05;19;19;
28026;PMS5003;15344;52.342;-1.290;2023-06-10T13:22:29;20;20;
28026;PMS5003;15344;52.342;-1.290;2023-06-10T13:24:55;27;27;
28026;PMS5003;15344;52.342;-1.290;2023-06-10T13:27:20;22;20;
28026;PMS5003;15344;52.342;-1.290;2023-06-10T13:29:45;25;21;
28026;PMS5003;15344;52.342;-1.290;2023-06-10T13:32:11;27;23;
28026;PMS5003;15344;52.342;-1.290;2023-06-10T13:34:36;22;21;
28026;PMS5003;15344;52.342;-1.290;2023-06-10T13:37:02;26;25;
28026;PMS5003;15344;52.342;-1.290;2023-06-10T13:39:27;22;21;
28026;PMS5003;15344;52.342;-1.290;2023-06-10T13:41:52;25;23;
28026;PMS5003;15344;52.342;-1.290;2023-06-10T13:44:18;26;23;
28026;PMS5003;15344;52.342;-1.290;2023-06-10T13:46:43;24;23;
28026;PMS5003;15344;52.342;-1.290;2023-06-10T13:49:09;24;21;
28026;PMS5003;15344;52.342;-1.290;2023-06-10T13:51:34;26;23;
28026;PMS5003;15344;52.342;-1.290;2023-06-10T13:54:00;23;23;
28026;PMS5003;15344;52.342;-1.290;2023-06-10T13:56:25;20;19;
28026;PMS5003;15344;52.342;-1.290;2023-06-10T13:58:51;24;23;
28026;PMS5003;15344;52.342;-1.290;2023-06-10T14:01:17;25;24;
28026;PMS5003;15344;52.342;-1.290;2023-06-10T14:03:42;24;24;
28026;PMS5003;15344;52.342;-1.290;2023-06-10T14:06:08;27;25;
28026;PMS5003;15344;52.342;-1.290;2023-06-10T14:08:33;21;21;
28026;PMS5003;15344;52.342;-1.290;2023-06-10T14:10:58;24;22;
28026;PMS5003;15344;52.342;-1.290;2023-06-10T14:13:23;25;23;
28026;PMS5003;15344;52.342;-1.290;2023-06-10T14:15:49;22;22;
28026;PMS5003;15344;52.342;-1.290;2023-06-10T14:18:14;20;20;
28026;PMS5003;15344;52.342;-1.290;2023-06-10T14:20:39;21;21;
28026;PMS5003;15344;52.342;-1.290;2023-06-10T14:23:04;25;23;
28026;PMS5003;15344;52.342;-1.290;2023-06-10T14:25:30;21;21;
28026;PMS5003;15344;52.342;-1.290;2023-06-10T14:27:55;24;23;
28026;PMS5003;15344;52.342;-1.290;2023-06-10T14:30:20;24;21;
28026;PMS5003;15344;52.342;-1.290;2023-06-10T14:32:46;26;23;
28026;PMS5003;15344;52.342;-1.290;2023-06-10T14:35:11;22;22;
28026;PMS5003;15344;52.342;-1.290;2023-06-10T14:37:38;19;19;
28026;PMS5003;15344;52.342;-1.290;2023-06-10T14:40:03;19;19;
28026;PMS5003;15344;52.342;-1.290;2023-06-10T14:42:28;17;17;
28026;PMS5003;15344;52.342;-1.290;2023-06-10T14:44:54;20;19;
28026;PMS5003;15344;52.342;-1.290;2023-06-10T14:47:20;21;18;
28026;PMS5003;15344;52.342;-1.290;2023-06-10T14:49:45;21;21;
28026;PMS5003;15344;52.342;-1.290;2023-06-10T14:52:10;18;16;
28026;PMS5003;15344;52.342;-1.290;2023-06-10T14:54:36;17;16;
28026;PMS5003;15344;52.342;-1.290;2023-06-10T14:57:02;18;16;
28026;PMS5003;15344;52.342;-1.290;2023-06-10T14:59:27;18;17;
28026;PMS5003;15344;52.342;-1.290;2023-06-10T15:01:52;20;20;
28026;PMS5003;15344;52.342;-1.290;2023-06-10T15:04:17;17;16;
28026;PMS5003;15344;52.342;-1.290;2023-06-10T15:06:43;16;16;
28026;PMS5003;15344;52.342;-1.290;2023-06-10T15:09:08;24;23;
28026;PMS5003;15344;52.342;-1.290;2023-06-10T15:11:34;21;20;
28026;PMS5003;15344;52.342;-1.290;2023-06-10T15:13:59;18;18;
28026;PMS5003;15344;52.342;-1.290;2023-06-10T15:16:24;18;18;
28026;PMS5003;15344;52.342;-1.290;2023-06-10T15:18:50;21;18;
28026;PMS5003;15344;52.342;-1.290;2023-06-10T15:21:15;20;17;
28026;PMS5003;15344;52.342;-1.290;2023-06-10T15:23:41;17;16;
28026;PMS5003;15344;52.342;-1.290;2023-06-10T15:26:06;18;15;
28026;PMS5003;15344;52.342;-1.290;2023-06-10T15:28:32;16;14;
28026;PMS5003;15344;52.342;-1.290;2023-06-10T15:30:57;13;13;
28026;PMS5003;15344;52.342;-1.290;2023-06-10T15:33:23;19;16;
28026;PMS5003;15344;52.342;-1.290;2023-06-10T15:35:49;17;15;
28026;PMS5003;15344;52.342;-1.290;2023-06-10T15:38:14;17;17;
28026;PMS5003;15344;52.342;-1.290;2023-06-10T15:40:40;16;16;
28026;PMS5003;15344;52.342;-1.290;2023-06-10T15:43:05;18;18;
28026;PMS5003;15344;52.342;-1.290;2023-06-10T15:45:31;19;16;
28026;PMS5003;15344;52.342;-1.290;2023-06-10T15:47:57;16;16;
28026;PMS5003;15344;52.342;-1.290;2023-06-10T15:50:22;23;21;
28026;PMS5003;15344;52.342;-1.290;2023-06-10T15:52:48;27;23;
28026;PMS5003;15344;52.342;-1.290;2023-06-10T15:55:13;20;19;
28026;PMS5003;15344;52.342;-1.290;2023-06-10T15:57:39;14;14;
28026;PMS5003;15344;52.342;-1.290;2023-06-10T16:00:05;17;17;
28026;PMS5003;15344;52.342;-1.290;2023-06-10T16:02:30;20;19;
28026;PMS5003;15344;52.342;-1.290;2023-06-10T16:04:55;19;19;
28026;PMS5003;15344;52.342;-1.290;2023-06-10T16:07:20;24;23;
28026;PMS5003;15344;52.342;-1.290;2023-06-10T16:09:46;23;21;
28026;PMS5003;15344;52.342;-1.290;2023-06-10T16:12:11;18;18;